Time;durP1;ratioP1;P1;durP2;ratioP2;P2;SDS_P1;SDS_P2;PMS_P1;PMS_P2;Temp;Humidity;BMP_temperature;BMP_pressure;BME280_temperature;BME280_humidity;BME280_pressure;Samples;Min_cycle;Max_cycle;Signal;HPM_P1;HPM_P2
2021/05/28 00:01:59;;;;;;;8.85;3.85;;;;;;;7.99;56.48;102164.34;5003824;28;20033;-69
2021/05/28 00:04:24;;;;;;;4.70;3.10;;;;;;;7.95;56.65;102161.75;5005481;28;20061;-69
2021/05/28 00:06:50;;;;;;;5.03;3.15;;;;;;;7.86;56.60;102163.59;5005687;28;20025;-68
2021/05/28 00:09:15;;;;;;;7.82;3.13;;;;;;;7.80;57.13;102166.22;5004039;28;20128;-68
2021/05/28 00:11:41;;;;;;;6.80;3.42;;;;;;;7.91;57.25;102167.00;5005827;28;20042;-68
2021/05/28 00:14:07;;;;;;;6.45;3.42;;;;;;;8.30;55.98;102177.97;5004002;28;20034;-69
2021/05/28 00:16:32;;;;;;;10.48;3.78;;;;;;;7.98;56.43;102176.50;5003826;28;20030;-69
2021/05/28 00:18:58;;;;;;;6.30;3.60;;;;;;;8.13;56.40;102172.91;5004612;28;20478;-69
2021/05/28 00:21:23;;;;;;;7.40;3.13;;;;;;;7.91;56.47;102173.09;5004295;28;20175;-69
2021/05/28 00:23:49;;;;;;;7.05;3.20;;;;;;;7.95;56.50;102182.59;5006014;28;20033;-69
2021/05/28 00:26:14;;;;;;;6.10;3.08;;;;;;;8.12;55.96;102186.81;4998960;28;20048;-69
2021/05/28 00:28:47;;;;;;;4.55;2.58;;;;;;;7.92;56.22;102181.75;5003704;28;20212;-68
2021/05/28 00:31:12;;;;;;;4.88;3.25;;;;;;;8.09;56.36;102189.41;5003579;28;20030;-69
2021/05/28 00:33:38;;;;;;;10.02;3.30;;;;;;;8.00;56.37;102184.28;4986459;28;20041;-68
2021/05/28 00:36:04;;;;;;;10.18;3.15;;;;;;;8.08;55.97;102188.56;4987687;28;20491;-69
2021/05/28 00:38:29;;;;;;;5.20;2.47;;;;;;;8.10;55.65;102180.75;5006645;28;20040;-68
2021/05/28 00:40:55;;;;;;;5.88;2.65;;;;;;;7.90;56.23;102180.91;5005236;28;20042;-69
2021/05/28 00:43:20;;;;;;;4.47;2.63;;;;;;;8.04;56.44;102184.25;4993438;28;20077;-68
2021/05/28 00:45:46;;;;;;;6.03;2.00;;;;;;;8.01;56.04;102184.28;4991314;28;20547;-69
2021/05/28 00:48:11;;;;;;;4.93;2.78;;;;;;;8.20;55.47;102189.34;5004615;28;20034;-69
2021/05/28 00:50:37;;;;;;;6.68;2.92;;;;;;;7.91;56.21;102186.13;4996412;28;20045;-69
2021/05/28 00:53:02;;;;;;;7.32;4.47;;;;;;;8.24;55.58;102198.84;5004678;28;20604;-69
2021/05/28 00:55:28;;;;;;;8.77;3.65;;;;;;;8.17;55.70;102191.97;5004646;28;20030;-69
2021/05/28 00:57:56;;;;;;;4.78;3.00;;;;;;;7.88;56.20;102190.47;5004211;28;20037;-69
2021/05/28 01:00:26;;;;;;;3.67;2.45;;;;;;;7.72;56.04;102201.00;4990008;28;20608;-68
2021/05/28 01:02:53;;;;;;;8.05;3.30;;;;;;;7.94;56.03;102201.69;5005145;28;20042;-68
2021/05/28 01:05:19;;;;;;;8.25;4.53;;;;;;;7.84;56.33;102209.59;5024505;28;20025;-68
2021/05/28 01:07:45;;;;;;;7.60;4.07;;;;;;;8.17;55.72;102207.59;4988156;28;20357;-69
2021/05/28 01:10:12;;;;;;;12.43;3.70;;;;;;;8.12;55.27;102203.28;5005287;28;20043;-69
2021/05/28 01:12:38;;;;;;;10.90;4.82;;;;;;;8.06;55.28;102210.28;5001418;28;20041;-69
2021/05/28 01:15:06;;;;;;;5.82;3.50;;;;;;;8.09;55.14;102226.75;5003428;28;20033;-68
2021/05/28 01:17:32;;;;;;;10.65;4.13;;;;;;;7.74;55.76;102234.81;5003271;28;20034;-68
2021/05/28 01:19:57;;;;;;;10.82;3.90;;;;;;;7.95;55.64;102226.84;5004245;28;20041;-68
2021/05/28 01:22:23;;;;;;;5.00;3.22;;;;;;;7.64;56.02;102220.97;5002801;28;20560;-70
2021/05/28 01:24:49;;;;;;;6.45;3.78;;;;;;;7.58;55.98;102227.97;5002333;28;20040;-69
2021/05/28 01:27:16;;;;;;;5.43;3.20;;;;;;;7.67;55.47;102225.34;5007806;28;20034;-68
2021/05/28 01:29:42;;;;;;;6.65;3.72;;;;;;;7.94;55.21;102226.88;5003555;28;20129;-68
2021/05/28 01:32:07;;;;;;;7.90;3.17;;;;;;;7.83;55.25;102223.50;5001258;28;20121;-68
2021/05/28 01:34:33;;;;;;;7.97;3.80;;;;;;;7.83;55.04;102234.75;5002099;28;20034;-68
2021/05/28 01:36:58;;;;;;;6.50;4.13;;;;;;;7.72;55.37;102232.22;5004216;28;20099;-68
2021/05/28 01:39:24;;;;;;;7.70;4.35;;;;;;;7.57;55.99;102236.66;5004989;28;20623;-68
2021/05/28 01:41:49;;;;;;;9.77;4.53;;;;;;;7.65;55.94;102240.94;5002594;28;20430;-68
2021/05/28 01:44:17;;;;;;;13.98;5.65;;;;;;;7.52;56.20;102242.72;5003410;28;20129;-70
2021/05/28 01:46:42;;;;;;;10.05;4.97;;;;;;;7.48;56.42;102243.59;5017671;28;20049;-69
2021/05/28 01:49:08;;;;;;;11.02;3.70;;;;;;;7.28;56.50;102241.09;5001758;28;20026;-69
2021/05/28 01:51:34;;;;;;;11.13;3.53;;;;;;;7.41;56.75;102241.91;5004154;28;20049;-69
2021/05/28 01:54:00;;;;;;;8.15;4.90;;;;;;;7.16;57.16;102250.69;5017859;28;20143;-69
2021/05/28 01:56:26;;;;;;;8.63;3.60;;;;;;;7.39;56.41;102258.41;5003019;28;20037;-69
2021/05/28 01:58:53;;;;;;;7.47;4.03;;;;;;;7.10;57.02;102260.22;5004028;28;20034;-69
2021/05/28 02:01:19;;;;;;;5.45;3.17;;;;;;;6.76;58.23;102256.84;5018401;28;20037;-68
2021/05/28 02:03:44;;;;;;;10.18;4.03;;;;;;;7.04;57.79;102256.78;5002705;28;20038;-69
2021/05/28 02:06:10;;;;;;;4.78;3.30;;;;;;;7.10;57.43;102259.38;5003097;28;20041;-69
2021/05/28 02:08:36;;;;;;;10.20;3.70;;;;;;;7.08;57.41;102263.69;5001882;28;20049;-69
2021/05/28 02:11:02;;;;;;;5.85;3.15;;;;;;;7.01;57.27;102267.19;5003991;28;20052;-69
2021/05/28 02:13:28;;;;;;;5.63;3.38;;;;;;;6.98;57.48;102269.81;5017676;28;20132;-69
2021/05/28 02:15:53;;;;;;;8.35;3.47;;;;;;;7.06;57.34;102275.84;5003075;28;20072;-69
2021/05/28 02:18:20;;;;;;;8.77;4.10;;;;;;;6.95;57.54;102272.41;5001674;28;20541;-69
2021/05/28 02:20:46;;;;;;;6.85;3.35;;;;;;;6.72;58.58;102277.66;5002081;28;20604;-69
2021/05/28 02:23:11;;;;;;;10.82;4.55;;;;;;;6.98;57.63;102267.22;4987866;28;20042;-69
2021/05/28 02:25:37;;;;;;;8.32;3.45;;;;;;;7.33;56.98;102272.28;5005623;28;20403;-69
2021/05/28 02:28:02;;;;;;;10.52;4.75;;;;;;;6.85;57.98;102266.38;5005431;28;20744;-70
2021/05/28 02:30:34;;;;;;;10.90;4.45;;;;;;;6.89;57.84;102274.16;5006675;28;20647;-68
2021/05/28 02:33:00;;;;;;;11.27;3.85;;;;;;;6.83;57.96;102274.16;4999174;28;20033;-69
2021/05/28 02:35:26;;;;;;;4.55;3.08;;;;;;;7.30;56.66;102270.56;5007458;28;20092;-69
2021/05/28 02:37:51;;;;;;;10.98;4.40;;;;;;;6.82;57.77;102272.44;5011162;28;20057;-69
2021/05/28 02:40:17;;;;;;;6.72;3.10;;;;;;;7.26;57.08;102273.19;5011544;28;20034;-69
2021/05/28 02:42:43;;;;;;;10.82;4.63;;;;;;;7.26;56.75;102289.63;5005008;28;20161;-69
2021/05/28 02:45:08;;;;;;;9.05;3.83;;;;;;;7.05;57.30;102289.72;5005179;28;20443;-69
2021/05/28 02:47:34;;;;;;;16.58;4.78;;;;;;;7.43;56.34;102291.34;4989788;28;20038;-69
2021/05/28 02:50:00;;;;;;;11.65;4.68;;;;;;;7.54;56.04;102286.94;4988750;28;20045;-70
2021/05/28 02:52:26;;;;;;;12.98;4.80;;;;;;;7.29;56.76;102283.59;5006041;28;20045;-69
2021/05/28 02:54:52;;;;;;;12.20;4.20;;;;;;;7.46;56.81;102288.69;5007997;28;20040;-69
2021/05/28 02:57:17;;;;;;;9.98;4.28;;;;;;;7.71;56.07;102286.88;5005931;28;20120;-69
2021/05/28 02:59:43;;;;;;;12.80;4.95;;;;;;;7.74;56.12;102302.50;5006945;28;20041;-68
2021/05/28 03:02:08;;;;;;;13.23;4.68;;;;;;;7.63;56.19;102296.47;5004983;28;20038;-69
2021/05/28 03:04:34;;;;;;;13.50;4.03;;;;;;;7.57;56.21;102297.34;4989200;28;20156;-69
2021/05/28 03:06:59;;;;;;;10.02;4.45;;;;;;;7.73;56.06;102299.03;5006374;28;20065;-69
2021/05/28 03:09:25;;;;;;;11.25;3.50;;;;;;;7.68;55.71;102299.91;5007635;28;20121;-69
2021/05/28 03:11:51;;;;;;;6.75;3.70;;;;;;;7.54;56.48;102289.53;4989248;28;20217;-69
2021/05/28 03:14:17;;;;;;;10.25;3.35;;;;;;;7.84;55.76;102287.69;5006282;28;20034;-69
2021/05/28 03:16:43;;;;;;;10.73;3.85;;;;;;;7.93;55.75;102300.63;5005520;28;20037;-68
2021/05/28 03:19:25;;;;;;;10.60;3.55;;;;;;;7.70;55.90;102293.81;5004454;28;20038;-69
2021/05/28 03:24:34;;;;;;;8.35;2.53;;;;;;;7.81;55.54;102298.97;5004951;28;20046;-69
2021/05/28 03:27:00;;;;;;;11.35;2.75;;;;;;;7.59;55.71;102298.22;4989386;28;20029;-68
2021/05/28 03:29:26;;;;;;;7.75;3.10;;;;;;;7.20;57.24;102300.09;5006732;28;20088;-69
2021/05/28 03:31:51;;;;;;;10.85;2.67;;;;;;;6.95;58.00;102298.41;5006846;28;20462;-69
2021/05/28 03:34:17;;;;;;;4.22;2.25;;;;;;;7.14;57.33;102304.44;4990999;28;20038;-68
2021/05/28 03:36:42;;;;;;;10.32;2.67;;;;;;;7.29;56.89;102302.66;4988582;28;20410;-68
2021/05/28 03:39:08;;;;;;;12.77;3.80;;;;;;;7.70;56.02;102305.97;5007264;28;20140;-68
2021/05/28 03:41:33;;;;;;;6.35;2.33;;;;;;;7.60;56.25;102310.38;5006813;28;20076;-68
2021/05/28 03:43:59;;;;;;;8.77;2.13;;;;;;;7.29;56.96;102310.44;4988950;28;20030;-68
2021/05/28 03:46:25;;;;;;;9.77;2.40;;;;;;;7.15;57.57;102306.16;5013660;28;20375;-69
2021/05/28 03:48:51;;;;;;;9.73;3.25;;;;;;;7.26;56.83;102299.19;4996332;28;20398;-68
2021/05/28 03:51:16;;;;;;;8.25;2.10;;;;;;;7.26;56.79;102310.44;5005937;28;20026;-68
2021/05/28 03:53:42;;;;;;;6.18;1.45;;;;;;;6.82;57.65;102308.84;5006099;28;20037;-69
2021/05/28 03:56:07;;;;;;;7.75;2.53;;;;;;;7.46;56.07;102306.91;5006848;28;20044;-68
2021/05/28 03:58:32;;;;;;;6.03;2.78;;;;;;;7.69;55.39;102310.31;5005492;28;20037;-69
2021/05/28 04:00:58;;;;;;;8.07;2.67;;;;;;;7.49;55.89;102299.13;5005896;28;20095;-69
2021/05/28 04:03:23;;;;;;;13.40;3.05;;;;;;;8.01;55.50;102301.47;5007039;28;20038;-69
2021/05/28 04:05:49;;;;;;;13.35;2.97;;;;;;;8.22;54.67;102316.06;5006564;28;20029;-69
2021/05/28 04:08:14;;;;;;;5.97;2.80;;;;;;;8.32;54.80;102312.53;5008993;28;20045;-69
2021/05/28 04:10:40;;;;;;;10.80;2.97;;;;;;;8.36;54.32;102313.38;5006777;28;20412;-70
2021/05/28 04:13:05;;;;;;;7.78;2.92;;;;;;;8.15;54.23;102310.03;5005207;28;20061;-69
2021/05/28 04:15:31;;;;;;;6.75;2.92;;;;;;;7.87;54.63;102311.06;5005123;28;20026;-69
2021/05/28 04:17:57;;;;;;;7.53;2.40;;;;;;;7.90;54.74;102308.47;5009275;28;20053;-69
2021/05/28 04:20:22;;;;;;;5.95;1.98;;;;;;;7.80;54.87;102306.78;5021752;28;20030;-69
2021/05/28 04:22:48;;;;;;;5.72;1.73;;;;;;;8.03;54.65;102298.84;5006297;28;20500;-70
2021/05/28 04:25:14;;;;;;;9.27;1.67;;;;;;;8.25;53.76;102305.63;5006428;28;20052;-69
2021/05/28 04:27:39;;;;;;;5.10;2.03;;;;;;;8.48;53.02;102307.19;4987799;28;20030;-69
2021/05/28 04:30:06;;;;;;;8.02;1.92;;;;;;;8.60;52.74;102303.63;5009055;28;20380;-69
2021/05/28 04:32:31;;;;;;;6.80;2.90;;;;;;;8.57;53.14;102313.19;5002463;28;20034;-69
2021/05/28 04:34:57;;;;;;;11.52;3.58;;;;;;;9.00;52.45;102309.34;4987548;28;20064;-69
2021/05/28 04:37:23;;;;;;;8.30;2.53;;;;;;;8.85;52.01;102306.88;4999885;28;20034;-69
2021/05/28 04:39:48;;;;;;;12.98;3.00;;;;;;;9.02;52.15;102309.31;5002300;28;20037;-69
2021/05/28 04:42:14;;;;;;;10.43;3.13;;;;;;;8.99;51.19;102315.44;5004977;28;20060;-69
2021/05/28 04:44:40;;;;;;;8.90;3.00;;;;;;;8.82;51.91;102315.59;5004312;28;20427;-69
2021/05/28 04:47:05;;;;;;;6.07;2.03;;;;;;;9.04;51.83;102312.78;5003760;28;20042;-69
2021/05/28 04:49:31;;;;;;;9.88;2.78;;;;;;;9.36;50.95;102312.41;5003224;28;20109;-69
2021/05/28 04:51:56;;;;;;;7.80;2.83;;;;;;;9.25;51.00;102315.13;5003854;28;20133;-69
2021/05/28 04:54:22;;;;;;;6.55;3.03;;;;;;;9.18;51.72;102313.50;4986858;28;20018;-69
2021/05/28 04:56:47;;;;;;;8.30;2.60;;;;;;;9.99;50.35;102320.31;5003195;28;20038;-69
2021/05/28 04:59:13;;;;;;;6.28;2.55;;;;;;;10.00;48.65;102321.19;5004187;28;20036;-69
2021/05/28 05:01:38;;;;;;;14.07;3.75;;;;;;;9.96;49.11;102322.09;5004864;28;20038;-70
2021/05/28 05:04:04;;;;;;;6.55;2.42;;;;;;;9.98;48.90;102329.03;5003728;28;20054;-69
2021/05/28 05:06:29;;;;;;;6.47;2.90;;;;;;;10.51;48.74;102326.50;5005110;28;20026;-70
2021/05/28 05:08:55;;;;;;;8.70;2.83;;;;;;;12.99;40.91;102327.28;5003966;28;20566;-69
2021/05/28 05:11:20;;;;;;;9.52;3.25;;;;;;;14.81;37.53;102324.34;4993926;28;20040;-69
2021/05/28 05:13:46;;;;;;;12.23;2.40;;;;;;;15.88;35.72;102320.38;5002757;28;20435;-68
2021/05/28 05:16:11;;;;;;;4.13;1.77;;;;;;;16.89;34.29;102331.22;5003026;28;20664;-70
2021/05/28 05:18:37;;;;;;;8.32;1.77;;;;;;;17.70;31.82;102339.91;5002604;28;20049;-68
2021/05/28 05:21:02;;;;;;;4.70;2.03;;;;;;;17.53;31.89;102343.31;5004260;28;20084;-70
2021/05/28 05:23:28;;;;;;;9.75;2.67;;;;;;;17.12;31.75;102348.69;5002218;28;20033;-69
2021/05/28 05:25:53;;;;;;;5.25;2.05;;;;;;;17.90;31.42;102349.53;5004614;28;20060;-68
2021/05/28 05:28:19;;;;;;;6.95;1.63;;;;;;;18.23;30.39;102355.00;5004155;28;20403;-68
2021/05/28 05:30:45;;;;;;;5.10;2.13;;;;;;;17.14;32.20;102356.56;5007427;28;21775;-68
2021/05/28 05:33:11;;;;;;;6.72;1.65;;;;;;;16.82;32.75;102356.16;5002858;28;20030;-70
2021/05/28 05:35:38;;;;;;;7.82;2.13;;;;;;;17.04;33.11;102353.44;5001972;28;20033;-68
2021/05/28 05:38:08;;;;;;;8.55;2.45;;;;;;;17.16;32.87;102365.28;5004175;28;20519;-68
2021/05/28 05:40:38;;;;;;;4.68;2.42;;;;;;;15.94;34.50;102369.41;5004825;28;20095;-68
2021/05/28 05:43:04;;;;;;;11.00;2.13;;;;;;;14.87;36.76;102382.06;5019561;28;20127;-68
2021/05/28 05:45:30;;;;;;;7.05;2.10;;;;;;;13.72;38.20;102382.16;5002004;28;20539;-68
2021/05/28 05:47:55;;;;;;;16.10;3.10;;;;;;;14.02;37.96;102382.13;5007209;28;20088;-69
2021/05/28 05:50:21;;;;;;;5.10;2.65;;;;;;;15.32;36.29;102389.28;4985780;28;20034;-68
2021/05/28 05:52:47;;;;;;;7.53;2.60;;;;;;;16.15;34.14;102386.16;5002242;28;20065;-68
2021/05/28 05:55:13;;;;;;;8.18;3.00;;;;;;;16.79;33.85;102377.44;5003446;28;20057;-68
2021/05/28 05:57:38;;;;;;;7.78;2.67;;;;;;;17.44;31.41;102384.22;5002696;28;20387;-68
2021/05/28 06:00:05;;;;;;;7.03;1.80;;;;;;;14.80;36.91;102386.69;5019203;28;20701;-69
2021/05/28 06:02:32;;;;;;;8.38;2.67;;;;;;;13.28;40.38;102389.50;5001883;28;20057;-69
2021/05/28 06:04:58;;;;;;;10.70;2.58;;;;;;;12.56;42.90;102387.81;4992300;28;20049;-69
2021/05/28 06:07:24;;;;;;;10.30;2.00;;;;;;;11.88;43.73;102390.22;5001051;28;20041;-69
2021/05/28 06:09:50;;;;;;;11.13;3.15;;;;;;;11.22;45.67;102390.69;5003737;28;20480;-68
2021/05/28 06:12:15;;;;;;;9.52;3.17;;;;;;;11.66;45.30;102396.78;5001557;28;20156;-70
2021/05/28 06:14:41;;;;;;;11.63;2.78;;;;;;;11.79;44.46;102389.56;4983919;28;20087;-68
2021/05/28 06:17:06;;;;;;;10.18;2.75;;;;;;;11.70;44.65;102390.59;4984955;28;20579;-68
2021/05/28 06:19:32;;;;;;;8.52;2.03;;;;;;;11.57;44.91;102383.88;5002718;28;20458;-69
2021/05/28 06:21:57;;;;;;;4.78;2.00;;;;;;;11.49;45.18;102401.53;5002673;28;20506;-68
2021/05/28 06:24:23;;;;;;;5.25;2.17;;;;;;;11.42;47.04;102395.53;5003749;28;20029;-69
2021/05/28 06:26:48;;;;;;;13.65;2.50;;;;;;;11.72;45.37;102404.53;5004177;28;20456;-67
2021/05/28 06:29:14;;;;;;;9.95;3.58;;;;;;;12.66;43.01;102411.19;5004877;28;20038;-68
2021/05/28 06:31:40;;;;;;;8.23;2.17;;;;;;;12.51;42.68;102416.78;5001871;28;20038;-68
2021/05/28 06:34:05;;;;;;;5.32;1.80;;;;;;;12.05;44.44;102413.47;5018101;28;20026;-68
2021/05/28 06:36:32;;;;;;;5.50;1.88;;;;;;;12.28;44.47;102412.94;5002160;28;20395;-70
2021/05/28 06:38:58;;;;;;;6.75;1.83;;;;;;;13.27;43.43;102418.41;5002396;28;20045;-68
2021/05/28 06:41:23;;;;;;;5.82;1.77;;;;;;;15.00;37.32;102417.59;5001540;28;20041;-67
2021/05/28 06:43:49;;;;;;;2.58;1.23;;;;;;;15.62;36.20;102415.41;5002408;28;20025;-68
2021/05/28 06:46:16;;;;;;;11.10;1.50;;;;;;;17.52;34.16;102418.28;5017640;28;20446;-68
2021/05/28 06:48:42;;;;;;;4.55;1.05;;;;;;;17.00;33.64;102417.88;5003599;28;20052;-68
2021/05/28 06:51:09;;;;;;;4.60;1.10;;;;;;;16.47;34.38;102418.34;5002804;28;20749;-68
2021/05/28 06:53:34;;;;;;;5.35;1.00;;;;;;;14.30;37.51;102418.97;4985453;28;20041;-68
2021/05/28 06:56:00;;;;;;;7.32;1.20;;;;;;;13.32;39.58;102416.53;4999599;28;20398;-68
2021/05/28 06:58:25;;;;;;;5.63;0.60;;;;;;;14.21;38.46;102419.25;5001608;28;20088;-69
2021/05/28 07:00:51;;;;;;;4.43;1.10;;;;;;;16.00;34.91;102416.66;5018114;28;20031;-68
2021/05/28 07:03:16;;;;;;;3.53;0.85;;;;;;;15.61;34.88;102417.19;4984725;28;20038;-69
2021/05/28 07:05:42;;;;;;;3.28;1.00;;;;;;;13.98;38.49;102422.56;4998794;28;20034;-68
2021/05/28 07:08:08;;;;;;;3.15;0.65;;;;;;;13.87;38.97;102433.38;4982442;28;20034;-69
2021/05/28 07:10:33;;;;;;;5.57;1.35;;;;;;;12.67;41.56;102439.16;4998301;28;20041;-69
2021/05/28 07:12:59;;;;;;;3.83;1.17;;;;;;;13.08;41.32;102432.03;5004780;28;20021;-69
2021/05/28 07:15:25;;;;;;;3.63;1.10;;;;;;;12.78;41.42;102425.81;5004939;28;20029;-69
2021/05/28 07:17:51;;;;;;;6.25;1.20;;;;;;;12.72;41.98;102440.84;5004894;28;20137;-68
2021/05/28 07:20:17;;;;;;;5.22;1.80;;;;;;;12.59;42.61;102435.84;5010115;28;20030;-69
2021/05/28 07:22:43;;;;;;;6.10;1.45;;;;;;;12.75;42.23;102431.13;5006215;28;20044;-69
2021/05/28 07:25:09;;;;;;;5.07;1.85;;;;;;;11.86;43.98;102428.69;4988029;28;20108;-69
2021/05/28 07:27:35;;;;;;;6.18;1.13;;;;;;;12.14;44.60;102438.63;5001269;28;20038;-69
2021/05/28 07:30:01;;;;;;;8.48;1.40;;;;;;;12.25;44.06;102446.25;5004527;28;20049;-69
2021/05/28 07:32:27;;;;;;;13.40;2.30;;;;;;;12.24;43.89;102450.59;5002579;28;20127;-69
2021/05/28 07:34:53;;;;;;;3.75;1.40;;;;;;;11.95;43.87;102450.38;5002297;28;20033;-69
2021/05/28 07:37:19;;;;;;;6.45;1.45;;;;;;;11.43;45.47;102447.84;5002551;28;20041;-69
2021/05/28 07:39:45;;;;;;;7.00;2.00;;;;;;;11.65;44.36;102456.16;4991760;28;20037;-69
2021/05/28 07:42:10;;;;;;;4.95;1.65;;;;;;;11.06;45.10;102450.25;5002427;28;20106;-68
2021/05/28 07:44:36;;;;;;;5.88;1.33;;;;;;;11.57;44.71;102451.97;5001311;28;20037;-69
2021/05/28 07:47:02;;;;;;;3.00;1.40;;;;;;;12.64;41.78;102454.94;5006339;28;20041;-68
2021/05/28 07:49:27;;;;;;;3.67;1.75;;;;;;;13.65;42.50;102454.19;5001256;28;20069;-69
2021/05/28 07:51:53;;;;;;;3.97;1.13;;;;;;;15.41;36.41;102444.28;5003746;28;20046;-69
2021/05/28 07:54:20;;;;;;;7.30;1.52;;;;;;;17.13;33.08;102444.63;5002802;28;20022;-69
2021/05/28 07:56:45;;;;;;;9.63;2.63;;;;;;;15.78;34.92;102442.94;5002146;28;20497;-68
2021/05/28 07:59:11;;;;;;;4.75;1.08;;;;;;;15.60;35.58;102444.50;5003369;28;20037;-69
2021/05/28 08:01:37;;;;;;;3.70;1.40;;;;;;;14.84;37.03;102450.63;5001289;28;20061;-69
2021/05/28 08:04:03;;;;;;;4.80;1.23;;;;;;;15.09;36.92;102454.13;5000171;28;20493;-69
2021/05/28 08:06:29;;;;;;;6.63;1.63;;;;;;;15.14;37.89;102460.09;5003216;28;20473;-69
2021/05/28 08:08:55;;;;;;;5.38;1.35;;;;;;;14.35;38.39;102456.50;5001472;28;20069;-69
2021/05/28 08:11:21;;;;;;;10.73;1.90;;;;;;;14.30;39.20;102460.16;5001746;28;20038;-69
2021/05/28 08:13:47;;;;;;;6.50;1.48;;;;;;;16.14;35.32;102455.69;5001741;28;20041;-69
2021/05/28 08:16:13;;;;;;;1.48;1.00;;;;;;;17.43;33.57;102448.59;5003396;28;20472;-70
2021/05/28 08:18:38;;;;;;;5.70;2.33;;;;;;;19.41;30.16;102448.81;5003035;28;20044;-69
2021/05/28 08:21:05;;;;;;;4.57;1.02;;;;;;;19.36;29.81;102442.88;5002762;28;20030;-70
2021/05/28 08:23:31;;;;;;;7.15;1.20;;;;;;;20.06;27.80;102445.31;5004998;28;20042;-69
2021/05/28 08:25:57;;;;;;;3.40;0.68;;;;;;;19.93;28.18;102439.88;4994374;28;20038;-69
2021/05/28 08:28:23;;;;;;;4.20;1.00;;;;;;;19.92;28.14;102443.44;4990616;28;20045;-68
2021/05/28 08:30:49;;;;;;;5.18;1.17;;;;;;;18.11;31.18;102440.22;5002209;28;20037;-68
2021/05/28 08:33:15;;;;;;;2.53;1.17;;;;;;;18.19;30.75;102434.63;4984636;28;20029;-67
2021/05/28 08:35:41;;;;;;;7.95;1.23;;;;;;;17.32;32.68;102439.44;5001435;28;20048;-68
2021/05/28 08:38:06;;;;;;;4.22;1.58;;;;;;;16.39;34.38;102442.38;5000843;28;20041;-69
2021/05/28 08:40:34;;;;;;;5.18;1.23;;;;;;;16.46;34.15;102449.13;5002798;28;20038;-68
2021/05/28 08:43:03;;;;;;;4.55;1.20;;;;;;;16.43;34.11;102449.25;5001415;28;20038;-69
2021/05/28 08:45:43;;;;;;;7.68;1.58;;;;;;;16.15;34.05;102455.63;5002604;28;20534;-68
2021/05/28 08:48:11;;;;;;;4.32;0.93;;;;;;;15.01;36.34;102464.06;5000934;28;20033;-68
2021/05/28 08:50:38;;;;;;;3.45;0.65;;;;;;;15.67;34.60;102467.06;5000220;28;20077;-67
2021/05/28 08:53:05;;;;;;;5.28;0.95;;;;;;;16.01;33.97;102468.47;4984098;28;20065;-68
2021/05/28 08:55:32;;;;;;;5.05;1.60;;;;;;;16.00;34.14;102461.50;5003124;28;20030;-68
2021/05/28 08:57:58;;;;;;;4.85;1.23;;;;;;;15.71;34.13;102466.03;5003458;28;20042;-67
2021/05/28 09:00:26;;;;;;;6.00;1.30;;;;;;;15.36;35.10;102456.75;5003224;28;20042;-68
2021/05/28 09:02:51;;;;;;;6.72;1.80;;;;;;;17.15;32.47;102448.94;5017590;28;20034;-68
2021/05/28 09:05:21;;;;;;;3.35;0.95;;;;;;;18.54;30.08;102447.94;4994508;28;20044;-68
2021/05/28 09:08:00;;;;;;;5.25;1.27;;;;;;;19.89;29.40;102436.53;5001800;28;20124;-68
2021/05/28 09:10:32;;;;;;;3.45;0.70;;;;;;;20.06;28.44;102438.25;5003322;28;20087;-68
2021/05/28 09:13:06;;;;;;;3.50;1.20;;;;;;;20.09;27.65;102442.53;4996870;28;20030;-68
2021/05/28 09:15:32;;;;;;;2.97;0.82;;;;;;;19.14;28.97;102443.16;5003664;28;20073;-67
2021/05/28 09:17:57;;;;;;;5.32;1.25;;;;;;;18.48;29.59;102438.50;5004800;28;20070;-68
2021/05/28 09:20:23;;;;;;;3.15;0.75;;;;;;;19.44;28.70;102437.19;5004778;28;20043;-70
2021/05/28 09:23:06;;;;;;;4.40;1.13;;;;;;;18.62;29.52;102440.47;5018393;28;20205;-69
2021/05/28 09:25:58;;;;;;;6.25;0.93;;;;;;;18.28;30.01;102439.47;5004075;28;20052;-67
2021/05/28 09:28:25;;;;;;;4.57;1.23;;;;;;;17.73;30.29;102434.94;5004993;28;20033;-67
2021/05/28 09:30:55;;;;;;;6.47;1.48;;;;;;;17.03;33.82;102439.75;5003074;28;20045;-68
2021/05/28 09:33:20;;;;;;;5.80;1.98;;;;;;;17.36;32.79;102443.66;5002026;28;20038;-67
2021/05/28 09:35:49;;;;;;;7.35;1.20;;;;;;;17.22;33.11;102450.41;4999534;28;20109;-67
2021/05/28 09:38:22;;;;;;;4.18;1.17;;;;;;;17.81;33.14;102446.03;5002510;28;20044;-68
2021/05/28 09:40:48;;;;;;;6.40;1.20;;;;;;;17.35;33.51;102441.94;5003115;28;20164;-68
2021/05/28 09:43:21;;;;;;;7.55;1.70;;;;;;;17.90;32.96;102447.41;5003691;28;20113;-67
2021/05/28 09:45:48;;;;;;;3.78;1.15;;;;;;;16.62;34.42;102459.91;4996602;28;20034;-68
2021/05/28 09:48:14;;;;;;;7.25;1.10;;;;;;;15.98;34.79;102463.28;5008364;28;20038;-67
2021/05/28 09:50:45;;;;;;;5.57;2.05;;;;;;;15.51;35.92;102461.50;5004297;28;20037;-70
2021/05/28 09:53:33;;;;;;;5.50;1.13;;;;;;;15.18;35.96;102469.63;5006408;28;20026;-68
2021/05/28 09:56:19;;;;;;;8.15;1.52;;;;;;;15.33;36.40;102470.06;5001042;28;20040;-68
2021/05/28 09:59:06;;;;;;;9.15;1.08;;;;;;;15.58;35.85;102465.63;5002625;28;21535;-69
2021/05/28 10:01:34;;;;;;;3.85;1.30;;;;;;;15.79;36.19;102463.09;5018907;28;20037;-69
2021/05/28 10:04:07;;;;;;;2.63;0.80;;;;;;;15.85;33.58;102467.31;5003257;28;20033;-70
2021/05/28 10:06:41;;;;;;;2.72;0.63;;;;;;;15.73;33.96;102463.34;5004130;28;20029;-69
2021/05/28 10:09:09;;;;;;;2.55;1.15;;;;;;;16.76;33.21;102462.91;5004673;28;20033;-68
2021/05/28 10:11:37;;;;;;;2.65;0.85;;;;;;;16.80;32.65;102461.88;5008860;28;20069;-70
2021/05/28 10:14:03;;;;;;;2.90;0.75;;;;;;;16.31;33.17;102455.91;5006023;28;20443;-68
2021/05/28 10:16:29;;;;;;;3.58;1.02;;;;;;;16.73;32.87;102459.50;5003635;28;20289;-69
2021/05/28 10:18:56;;;;;;;3.78;1.13;;;;;;;16.73;33.38;102460.38;5003714;28;20060;-67
2021/05/28 10:21:23;;;;;;;7.40;1.05;;;;;;;15.91;34.45;102467.09;4976103;28;20038;-68
2021/05/28 10:23:49;;;;;;;3.92;1.55;;;;;;;16.23;35.02;102463.25;5001787;28;20399;-68
2021/05/28 10:26:26;;;;;;;3.78;1.80;;;;;;;16.80;33.72;102469.78;5003097;28;20038;-68
2021/05/28 10:28:52;;;;;;;2.70;1.13;;;;;;;16.86;33.92;102467.81;5003231;28;20038;-68
2021/05/28 10:31:18;;;;;;;5.05;1.02;;;;;;;18.08;32.15;102466.00;5002586;28;20974;-69
2021/05/28 10:33:49;;;;;;;5.03;0.98;;;;;;;19.02;30.71;102457.03;5002539;28;20121;-68
2021/05/28 10:36:45;;;;;;;7.10;1.33;;;;;;;18.25;30.89;102466.94;5003316;28;20053;-68
2021/05/28 10:39:13;;;;;;;5.03;1.35;;;;;;;17.48;31.53;102472.22;5004289;28;20045;-70
2021/05/28 10:41:40;;;;;;;2.50;0.82;;;;;;;17.22;32.27;102466.25;5000929;28;20041;-67
2021/05/28 10:44:08;;;;;;;4.65;0.90;;;;;;;17.92;30.75;102466.72;5019301;28;20037;-69
2021/05/28 10:46:34;;;;;;;5.50;1.10;;;;;;;17.98;30.77;102466.44;5005372;28;20156;-69
2021/05/28 10:49:00;;;;;;;4.57;1.00;;;;;;;17.26;31.39;102466.97;5007858;28;20033;-68
2021/05/28 10:51:26;;;;;;;6.97;1.13;;;;;;;17.38;31.78;102466.44;5007165;28;20056;-68
2021/05/28 10:53:51;;;;;;;3.88;0.88;;;;;;;16.62;32.88;102478.41;5006007;28;20056;-68
2021/05/28 10:56:25;;;;;;;3.03;1.13;;;;;;;17.37;32.55;102463.88;5007585;28;20052;-68
2021/05/28 10:59:09;;;;;;;3.70;0.75;;;;;;;18.11;32.44;102479.06;5005000;28;20029;-69
2021/05/28 11:01:53;;;;;;;3.83;1.35;;;;;;;18.22;31.81;102476.81;5008974;28;20072;-69
2021/05/28 11:04:43;;;;;;;1.63;0.57;;;;;;;17.10;33.22;102471.19;5004488;28;20034;-68
2021/05/28 11:07:08;;;;;;;4.50;1.20;;;;;;;17.18;34.28;102472.59;5003865;28;20038;-68
2021/05/28 11:09:38;;;;;;;5.72;1.88;;;;;;;17.04;33.90;102467.03;5004378;28;20061;-69
2021/05/28 11:12:08;;;;;;;6.15;1.27;;;;;;;17.82;32.21;102470.69;5007165;28;20037;-68
2021/05/28 11:14:37;;;;;;;5.18;0.90;;;;;;;17.14;33.86;102473.66;5005224;28;20101;-68
2021/05/28 11:17:03;;;;;;;5.93;1.55;;;;;;;16.65;33.65;102464.25;5004084;28;20057;-68
2021/05/28 11:19:41;;;;;;;3.28;1.13;;;;;;;16.39;33.85;102464.34;5003226;28;20064;-69
2021/05/28 11:22:12;;;;;;;7.68;1.08;;;;;;;16.27;33.67;102467.47;5002721;28;20083;-69
2021/05/28 11:24:50;;;;;;;6.13;2.08;;;;;;;16.53;34.51;102465.56;5003041;28;20794;-69
2021/05/28 11:27:22;;;;;;;6.10;1.08;;;;;;;16.71;33.97;102461.34;5004099;28;20038;-69
2021/05/28 11:30:04;;;;;;;4.03;1.15;;;;;;;16.41;34.30;102467.78;5001034;28;20238;-68